Terminal Aerodrome Forecast
Issued by NWS Dallas/Fort Worth, TX

Current Version | Previous Version | Text Only | Print | Product List | Glossary On
Versions: 1 2 3 4 5 6 7 8 9 10 11 12 13 14 15 16 17 18 19 20 21 22 23 24 25 26 27
901
FTUS44 KFWD 261135
TAFACT
TAF
KACT 261135Z 2612/2712 16007KT P6SM FEW015
      TEMPO 2612/2615 BKN015
     FM261600 16007KT P6SM VCSH BKN040
     FM261800 15008KT P6SM VCTS BKN045CB
     FM262300 14008KT P6SM VCSH BKN050
     FM270200 15006KT P6SM BKN100=

USA.gov is the U.S. government's official web portal to all federal, state and local government web resources and services.